Time;durP1;ratioP1;P1;durP2;ratioP2;P2;SDS_P1;SDS_P2;PMS_P1;PMS_P2;Temp;Humidity;BMP_temperature;BMP_pressure;BME280_temperature;BME280_humidity;BME280_pressure;Samples;Min_cycle;Max_cycle;Signal;HPM_P1;HPM_P2
2021/03/16 00:00:10;;;;;;;21.88;3.22;;;;;;;5.18;88.27;102321.94;5099407;28;20270;-79
2021/03/16 00:02:35;;;;;;;26.30;4.23;;;;;;;5.14;88.77;102322.50;5102493;28;20027;-80
2021/03/16 00:05:01;;;;;;;26.85;3.03;;;;;;;5.26;88.28;102319.94;5102624;28;20031;-79
2021/03/16 00:07:27;;;;;;;26.48;2.35;;;;;;;5.28;88.36;102326.91;5100942;28;20047;-77
2021/03/16 00:09:52;;;;;;;28.98;3.70;;;;;;;5.32;88.10;102328.00;5101600;28;20062;-80
2021/03/16 00:12:17;;;;;;;28.10;3.13;;;;;;;5.30;87.79;102327.91;5103318;28;20036;-80
2021/03/16 00:14:42;;;;;;;29.10;3.30;;;;;;;5.32;88.08;102338.19;5103219;28;20062;-80
2021/03/16 00:17:08;;;;;;;27.17;3.95;;;;;;;5.32;87.40;102333.09;5103830;28;20020;-80
2021/03/16 00:19:34;;;;;;;25.45;3.83;;;;;;;5.35;87.12;102340.06;5101974;28;20069;-79
2021/03/16 00:22:00;;;;;;;37.70;3.47;;;;;;;5.34;87.61;102336.63;5102707;28;20654;-80
2021/03/16 00:24:25;;;;;;;26.08;4.15;;;;;;;5.30;87.80;102337.22;5104018;28;20039;-78
2021/03/16 00:26:50;;;;;;;24.20;2.90;;;;;;;5.41;87.99;102331.16;5103474;27;20111;-79
2021/03/16 00:29:16;;;;;;;26.17;3.37;;;;;;;5.46;87.28;102340.00;5102777;28;20501;-80
2021/03/16 00:31:41;;;;;;;28.43;3.43;;;;;;;5.47;87.31;102338.34;5102271;28;20268;-79
2021/03/16 00:34:06;;;;;;;24.00;3.92;;;;;;;5.42;87.65;102340.59;5102947;28;20035;-80
2021/03/16 00:36:33;;;;;;;23.42;4.18;;;;;;;5.43;87.38;102339.81;5102110;28;20027;-78
2021/03/16 00:38:58;;;;;;;23.37;2.93;;;;;;;5.47;87.46;102336.69;5103116;28;20028;-78
2021/03/16 00:41:23;;;;;;;30.95;3.65;;;;;;;5.44;87.30;102341.56;5102302;28;20508;-79
2021/03/16 00:43:51;;;;;;;43.53;3.47;;;;;;;5.45;87.47;102350.09;5101324;28;20602;-81
2021/03/16 00:46:16;;;;;;;21.03;2.97;;;;;;;5.40;87.92;102356.56;5102044;28;20270;-79
2021/03/16 00:48:41;;;;;;;32.20;4.55;;;;;;;5.32;87.88;102356.03;5101364;28;20027;-79
2021/03/16 00:51:07;;;;;;;25.30;3.37;;;;;;;5.31;87.47;102349.16;5101758;28;20020;-80
2021/03/16 00:53:32;;;;;;;24.85;3.05;;;;;;;5.41;87.06;102350.69;5101783;28;20081;-79
2021/03/16 00:55:58;;;;;;;25.57;3.27;;;;;;;5.35;86.87;102353.69;5101053;28;20024;-79
2021/03/16 00:58:27;;;;;;;29.65;3.67;;;;;;;5.32;86.69;102354.38;5103781;28;20027;-78
2021/03/16 01:00:54;;;;;;;28.00;3.53;;;;;;;5.32;86.77;102358.59;5102095;28;20400;-80
2021/03/16 01:03:19;;;;;;;27.43;2.60;;;;;;;5.34;86.70;102356.13;5099886;28;20165;-79
2021/03/16 01:05:46;;;;;;;24.33;2.92;;;;;;;5.33;86.51;102357.81;5100272;28;20110;-81
2021/03/16 01:08:11;;;;;;;20.27;2.83;;;;;;;5.34;86.63;102351.03;5101048;28;20027;-77
2021/03/16 01:10:37;;;;;;;16.73;2.50;;;;;;;5.40;86.59;102352.34;5103027;28;20028;-79
2021/03/16 01:13:02;;;;;;;36.58;4.32;;;;;;;5.42;86.57;102357.53;5099982;28;20020;-78
2021/03/16 01:15:28;;;;;;;20.00;2.80;;;;;;;5.46;86.30;102360.41;5101411;28;20529;-80
2021/03/16 01:17:53;;;;;;;23.70;3.20;;;;;;;5.50;86.22;102359.81;5101954;28;20057;-78
2021/03/16 01:20:22;;;;;;;18.17;2.17;;;;;;;5.45;86.44;102379.00;5098635;28;20023;-84
2021/03/16 01:22:47;;;;;;;25.07;3.20;;;;;;;5.54;86.02;102363.50;5099960;28;20604;-79
2021/03/16 01:25:13;;;;;;;29.52;3.55;;;;;;;5.46;86.34;102360.41;5100870;28;20027;-78
2021/03/16 01:27:39;;;;;;;24.17;3.15;;;;;;;5.55;85.45;102358.50;5102548;28;20035;-79
2021/03/16 01:30:06;;;;;;;22.27;3.50;;;;;;;5.54;85.68;102358.41;5102820;28;20019;-81
2021/03/16 01:32:31;;;;;;;24.33;4.03;;;;;;;5.51;85.40;102363.25;5098298;28;20442;-79
2021/03/16 01:34:56;;;;;;;29.95;3.58;;;;;;;5.44;85.45;102363.63;5101581;28;20032;-81
2021/03/16 01:37:22;;;;;;;23.13;3.07;;;;;;;5.39;85.37;102368.41;5100893;28;20563;-80
2021/03/16 01:39:48;;;;;;;18.80;2.55;;;;;;;5.44;85.25;102359.41;5100192;28;20273;-79
2021/03/16 01:42:13;;;;;;;;;;;;;;;5.46;85.05;102364.63;5100289;28;20077;-79
2021/03/16 01:44:42;;;;;;;19.00;3.00;;;;;;;5.45;85.05;102366.28;5100787;28;19916;-79
2021/03/16 01:47:10;;;;;;;28.50;5.00;;;;;;;5.46;85.20;102360.41;5101142;28;20016;-78
2021/03/16 01:49:35;;;;;;;22.80;3.93;;;;;;;5.47;85.30;102367.25;5102341;28;20030;-80
2021/03/16 01:52:02;;;;;;;18.65;2.63;;;;;;;5.44;85.91;102358.53;5099247;28;20024;-80
2021/03/16 01:54:27;;;;;;;17.53;2.97;;;;;;;5.49;85.76;102357.16;5099989;28;20493;-80
2021/03/16 01:56:54;;;;;;;21.58;3.28;;;;;;;5.48;85.59;102352.84;5099903;28;20100;-79
2021/03/16 01:59:20;;;;;;;22.30;2.67;;;;;;;5.43;85.88;102360.19;5099919;28;20046;-79
2021/03/16 02:01:46;;;;;;;19.77;3.53;;;;;;;5.38;86.14;102350.47;5102161;28;20031;-80
2021/03/16 02:04:12;;;;;;;23.08;3.10;;;;;;;5.34;86.56;102358.69;5101985;28;20027;-80
2021/03/16 02:07:05;;;;;;;22.40;2.88;;;;;;;5.40;86.65;102365.06;5100295;28;20024;-79
2021/03/16 02:09:58;;;;;;;24.10;3.30;;;;;;;5.36;86.72;102363.09;5058151;28;20059;-79
2021/03/16 02:12:49;;;;;;;26.47;2.50;;;;;;;5.36;87.25;102368.19;5100150;28;20158;-80
2021/03/16 02:15:17;;;;;;;25.57;3.87;;;;;;;5.35;87.17;102358.78;5098978;28;20020;-80
2021/03/16 02:17:49;;;;;;;26.17;2.87;;;;;;;5.32;87.50;102363.69;5103758;28;20435;-80
2021/03/16 02:20:47;;;;;;;28.73;4.67;;;;;;;5.33;87.59;102368.00;5104891;28;20023;-80
2021/03/16 02:23:19;;;;;;;23.20;3.80;;;;;;;5.31;87.69;102365.34;5104674;28;20511;-80
2021/03/16 02:26:14;;;;;;;25.77;3.60;;;;;;;5.28;88.28;102374.44;5104614;28;20016;-80
2021/03/16 02:29:01;;;;;;;27.70;3.67;;;;;;;5.28;88.53;102369.34;5101903;28;20027;-79
2021/03/16 02:31:27;;;;;;;22.40;3.70;;;;;;;5.24;88.89;102367.38;5101962;28;20024;-79
2021/03/16 02:33:55;;;;;;;19.67;2.50;;;;;;;5.25;88.86;102369.13;5104473;28;20676;-79
2021/03/16 02:36:21;;;;;;;23.33;3.70;;;;;;;5.23;88.83;102365.59;5102806;28;20050;-79
2021/03/16 02:38:51;;;;;;;21.77;3.27;;;;;;;5.21;88.78;102372.25;5104346;28;20096;-80
2021/03/16 02:41:18;;;;;;;33.47;4.13;;;;;;;5.22;88.94;102374.03;5102331;28;20039;-78
2021/03/16 02:43:44;;;;;;;31.80;3.87;;;;;;;5.19;89.28;102369.56;5104341;28;20032;-80
2021/03/16 02:46:10;;;;;;;25.93;4.40;;;;;;;5.23;89.15;102373.25;5103055;28;20027;-80
2021/03/16 02:48:37;;;;;;;32.42;2.75;;;;;;;5.25;88.69;102372.56;5106533;28;20031;-79
2021/03/16 02:51:04;;;;;;;27.17;3.00;;;;;;;5.25;88.99;102369.13;5102783;28;20028;-81
2021/03/16 02:53:32;;;;;;;17.77;3.03;;;;;;;5.30;88.61;102372.88;5103993;28;20051;-79
2021/03/16 02:55:58;;;;;;;26.30;3.33;;;;;;;5.28;88.72;102374.44;5102023;28;20469;-80
2021/03/16 02:58:25;;;;;;;25.67;3.23;;;;;;;5.29;88.67;102366.91;5103425;28;20032;-78
2021/03/16 03:00:51;;;;;;;;;;;;;;;5.27;88.60;102371.00;5101623;28;20052;-77
2021/03/16 03:03:18;;;;;;;22.27;4.03;;;;;;;5.28;88.33;102377.88;5103952;27;19966;-80
2021/03/16 03:05:44;;;;;;;28.43;2.67;;;;;;;5.27;88.43;102377.75;5105066;28;20066;-78
2021/03/16 03:08:10;;;;;;;27.73;3.73;;;;;;;5.23;88.42;102378.34;5104142;28;20015;-79
2021/03/16 03:10:36;;;;;;;16.95;2.70;;;;;;;5.20;88.74;102378.09;5104552;28;20103;-80
2021/03/16 03:13:03;;;;;;;28.73;3.90;;;;;;;5.23;88.51;102370.69;5105250;28;20026;-79
2021/03/16 03:15:29;;;;;;;26.63;3.03;;;;;;;5.19;88.92;102373.78;5099720;28;20503;-78
2021/03/16 03:17:54;;;;;;;32.33;4.00;;;;;;;5.24;88.67;102378.44;5105115;28;20039;-80
2021/03/16 03:20:19;;;;;;;28.73;3.40;;;;;;;5.23;89.15;102381.75;5102245;28;20278;-78
2021/03/16 03:22:51;;;;;;;32.97;3.57;;;;;;;5.21;89.31;102382.44;5103089;28;20375;-79
2021/03/16 03:25:24;;;;;;;26.87;3.20;;;;;;;5.29;88.89;102376.22;5100726;28;20276;-76
2021/03/16 03:27:56;;;;;;;32.33;3.53;;;;;;;5.24;89.42;102375.00;5103624;28;20039;-80
2021/03/16 03:30:23;;;;;;;23.97;3.37;;;;;;;5.32;88.92;102378.97;5103528;28;20379;-79
2021/03/16 03:32:49;;;;;;;30.50;3.33;;;;;;;5.35;89.20;102378.28;5102964;28;20051;-79
2021/03/16 03:35:15;;;;;;;24.98;2.38;;;;;;;5.37;89.05;102377.63;5104378;28;20497;-81
2021/03/16 03:37:44;;;;;;;27.07;3.13;;;;;;;5.37;89.38;102385.25;5101405;28;20496;-80
2021/03/16 03:40:12;;;;;;;27.20;3.37;;;;;;;5.41;89.09;102386.34;5102700;28;20024;-82
2021/03/16 03:42:38;;;;;;;23.27;3.07;;;;;;;5.42;89.20;102394.09;5103704;28;20023;-81
2021/03/16 03:45:05;;;;;;;25.83;4.00;;;;;;;5.41;89.06;102397.44;5103979;28;20030;-81
2021/03/16 03:47:31;;;;;;;19.77;3.10;;;;;;;5.32;89.48;102396.81;5102359;28;20074;-79
2021/03/16 03:49:58;;;;;;;35.25;4.93;;;;;;;5.35;89.45;102399.56;5102453;28;20062;-79
2021/03/16 03:52:24;;;;;;;29.37;3.87;;;;;;;5.30;89.49;102398.34;5102908;28;20114;-79
2021/03/16 03:54:50;;;;;;;25.58;2.85;;;;;;;5.32;89.37;102392.59;5103210;28;20139;-78
2021/03/16 03:57:16;;;;;;;22.13;3.50;;;;;;;5.31;89.22;102405.22;5101310;28;20024;-78
2021/03/16 03:59:43;;;;;;;31.25;4.15;;;;;;;5.25;89.69;102399.72;5101762;28;20031;-80
2021/03/16 04:02:10;;;;;;;30.10;3.17;;;;;;;5.31;89.35;102397.56;5101497;28;20016;-80
2021/03/16 04:04:37;;;;;;;31.40;3.75;;;;;;;5.32;89.39;102396.81;5102141;28;20024;-80
2021/03/16 04:07:02;;;;;;;18.63;2.53;;;;;;;5.31;88.93;102400.13;5103238;28;20035;-80
2021/03/16 04:09:28;;;;;;;31.83;3.78;;;;;;;5.30;89.33;102401.78;5103347;28;20031;-80
2021/03/16 04:11:54;;;;;;;34.03;2.97;;;;;;;5.30;89.06;102404.34;5102235;28;20026;-81
2021/03/16 04:14:20;;;;;;;13.60;2.73;;;;;;;5.25;89.62;102410.78;5103748;28;20040;-81
2021/03/16 04:16:47;;;;;;;18.00;3.00;;;;;;;5.31;89.25;102416.31;5101832;28;20093;-79
2021/03/16 04:19:13;;;;;;;17.80;2.97;;;;;;;5.31;89.34;102420.50;5102064;28;20114;-79
2021/03/16 04:21:39;;;;;;;19.95;2.38;;;;;;;5.32;89.03;102419.72;5101204;28;20107;-79
2021/03/16 04:24:05;;;;;;;20.50;2.90;;;;;;;5.36;88.86;102426.81;5103147;28;20031;-79
2021/03/16 04:26:30;;;;;;;24.70;3.13;;;;;;;5.37;88.63;102417.50;5101311;28;20020;-79
2021/03/16 04:29:05;;;;;;;20.83;2.38;;;;;;;5.37;88.66;102423.47;5102211;28;20027;-79
2021/03/16 04:31:30;;;;;;;24.60;3.53;;;;;;;5.36;89.01;102419.16;5103541;28;20499;-78
2021/03/16 04:33:56;;;;;;;23.00;2.72;;;;;;;5.39;88.59;102424.47;5102209;28;20028;-80
2021/03/16 04:36:21;;;;;;;34.23;4.27;;;;;;;5.39;88.34;102413.41;5101868;28;20020;-79
2021/03/16 04:38:46;;;;;;;22.50;2.83;;;;;;;5.37;88.21;102431.13;5101064;28;20274;-79
2021/03/16 04:41:12;;;;;;;30.17;3.58;;;;;;;5.36;88.20;102415.72;5100887;27;20084;-79
2021/03/16 04:43:41;;;;;;;26.40;3.37;;;;;;;5.32;88.53;102429.94;5102341;28;20043;-81
2021/03/16 04:46:07;;;;;;;28.33;3.57;;;;;;;5.30;88.74;102422.16;5101728;28;20293;-78
2021/03/16 04:48:32;;;;;;;29.55;3.45;;;;;;;5.34;88.59;102423.28;5102441;28;20062;-80
2021/03/16 04:50:57;;;;;;;24.25;3.58;;;;;;;5.33;89.10;102429.16;5100024;28;20015;-80
2021/03/16 04:53:23;;;;;;;26.10;3.50;;;;;;;5.41;88.99;102430.56;5100757;28;20493;-79
2021/03/16 04:55:48;;;;;;;28.42;3.63;;;;;;;5.45;88.81;102437.63;5100209;28;20289;-80
2021/03/16 04:58:13;;;;;;;26.37;3.73;;;;;;;5.48;88.43;102430.19;5100215;28;20055;-79
2021/03/16 05:00:39;;;;;;;26.20;3.15;;;;;;;5.46;88.45;102436.84;5100563;28;20065;-80
2021/03/16 05:03:04;;;;;;;25.17;3.47;;;;;;;5.45;88.62;102442.72;5099925;28;20069;-80
2021/03/16 05:05:29;;;;;;;28.47;4.20;;;;;;;5.48;88.31;102445.50;5101605;28;20789;-80
2021/03/16 05:07:55;;;;;;;30.17;3.33;;;;;;;5.49;88.16;102447.25;5101826;28;20619;-80
2021/03/16 05:10:23;;;;;;;25.45;3.08;;;;;;;5.46;88.29;102449.59;5101482;28;20027;-77
2021/03/16 05:12:48;;;;;;;22.73;2.90;;;;;;;5.52;88.04;102449.13;5100069;28;20032;-78
2021/03/16 05:15:13;;;;;;;29.50;2.80;;;;;;;5.48;88.51;102460.78;5102751;28;20023;-81
2021/03/16 05:17:39;;;;;;;34.90;3.53;;;;;;;5.41;88.52;102458.59;5100861;28;20640;-80
2021/03/16 05:20:04;;;;;;;24.43;2.80;;;;;;;5.48;88.19;102459.91;5102229;28;20024;-77
2021/03/16 05:22:30;;;;;;;19.13;3.00;;;;;;;5.45;88.24;102464.78;5100933;28;20047;-82
2021/03/16 05:24:58;;;;;;;28.03;3.93;;;;;;;5.42;88.28;102464.56;5103270;28;20400;-80
2021/03/16 05:27:23;;;;;;;24.70;3.27;;;;;;;5.40;88.33;102461.91;5100922;28;20118;-80
2021/03/16 05:29:49;;;;;;;23.73;3.22;;;;;;;5.40;88.23;102456.81;5100696;28;20484;-77
2021/03/16 05:32:14;;;;;;;35.50;3.20;;;;;;;5.39;88.66;102469.44;5101288;28;20028;-78
2021/03/16 05:34:39;;;;;;;21.48;2.45;;;;;;;5.35;88.35;102467.47;5101709;28;20027;-80
2021/03/16 05:37:05;;;;;;;26.10;3.22;;;;;;;5.38;88.52;102467.69;5102203;28;20499;-81
2021/03/16 05:39:30;;;;;;;32.00;3.80;;;;;;;5.39;88.46;102475.44;5101048;28;20076;-80
2021/03/16 05:42:03;;;;;;;31.67;3.50;;;;;;;5.38;88.71;102470.22;5100876;28;20055;-79
2021/03/16 05:44:28;;;;;;;33.80;3.80;;;;;;;5.37;88.61;102474.44;5100442;28;20487;-80
2021/03/16 05:46:54;;;;;;;20.48;2.53;;;;;;;5.37;88.75;102471.00;5101581;28;20115;-79
2021/03/16 05:49:22;;;;;;;27.33;3.58;;;;;;;5.39;88.92;102474.56;5102496;28;20063;-80
2021/03/16 05:51:48;;;;;;;26.53;2.57;;;;;;;5.43;88.93;102472.31;5102814;28;20053;-81
2021/03/16 05:54:15;;;;;;;26.48;3.25;;;;;;;5.44;88.78;102466.44;5102410;28;20689;-80
2021/03/16 05:56:41;;;;;;;25.77;2.70;;;;;;;5.44;88.60;102463.91;5105751;28;20047;-80
2021/03/16 05:59:08;;;;;;;23.10;3.58;;;;;;;5.46;88.76;102464.00;5104696;28;20070;-79
2021/03/16 06:01:33;;;;;;;31.40;3.07;;;;;;;5.47;88.55;102465.78;5102555;28;20396;-80
2021/03/16 06:04:03;;;;;;;22.58;2.55;;;;;;;5.47;88.21;102464.09;5105742;28;20102;-80
2021/03/16 06:06:31;;;;;;;24.83;2.63;;;;;;;5.48;88.46;102467.53;5104477;28;20032;-80
2021/03/16 06:08:57;;;;;;;26.70;2.47;;;;;;;5.46;88.48;102467.44;5106825;28;20035;-80
2021/03/16 06:11:24;;;;;;;30.88;3.22;;;;;;;5.50;88.39;102469.41;5104510;28;20016;-80
2021/03/16 06:13:52;;;;;;;31.60;3.50;;;;;;;5.53;88.27;102459.47;5105888;28;20110;-81
2021/03/16 06:16:17;;;;;;;19.23;2.43;;;;;;;5.53;88.08;102468.78;5104559;28;20035;-79
2021/03/16 06:18:44;;;;;;;32.70;3.65;;;;;;;5.49;88.46;102466.75;5105487;28;20451;-79
2021/03/16 06:21:11;;;;;;;18.20;3.47;;;;;;;5.53;88.54;102481.53;5102351;28;20024;-82
2021/03/16 06:23:38;;;;;;;33.73;4.80;;;;;;;5.50;89.23;102459.22;5106098;28;20106;-80
2021/03/16 06:26:12;;;;;;;20.20;2.60;;;;;;;5.54;89.20;102466.34;5104751;28;20384;-80
2021/03/16 06:28:38;;;;;;;29.17;3.23;;;;;;;5.59;89.17;102467.53;5105082;28;20408;-81
2021/03/16 06:31:04;;;;;;;29.10;4.45;;;;;;;5.55;89.21;102473.19;5104301;28;20055;-80
2021/03/16 06:33:30;;;;;;;;;;;;;;;5.60;88.99;102461.66;5106104;28;20062;-81
2021/03/16 06:36:01;;;;;;;16.40;1.95;;;;;;;5.63;89.29;102468.63;5103798;28;19916;-78
2021/03/16 06:38:29;;;;;;;21.83;2.67;;;;;;;5.68;88.96;102467.28;5102032;28;20088;-80
2021/03/16 06:41:11;;;;;;;13.57;2.60;;;;;;;5.63;88.70;102472.06;5106603;28;20065;-80
2021/03/16 06:43:38;;;;;;;22.07;3.13;;;;;;;5.66;88.60;102471.38;5104149;28;20077;-78
2021/03/16 06:46:03;;;;;;;;;;;;;;;5.68;88.28;102480.03;5103969;28;20016;-80
2021/03/16 06:48:36;;;;;;;23.37;4.03;;;;;;;5.70;88.66;102477.59;5103661;28;19911;-81
2021/03/16 06:51:10;;;;;;;19.73;2.40;;;;;;;5.73;87.91;102477.78;5103421;28;20019;-81
2021/03/16 06:53:35;;;;;;;18.93;2.80;;;;;;;5.72;87.77;102471.81;5103876;28;20468;-78
2021/03/16 06:56:01;;;;;;;24.35;4.18;;;;;;;5.69;88.16;102483.47;5104127;28;20137;-81
2021/03/16 06:58:30;;;;;;;23.95;2.90;;;;;;;5.73;87.88;102476.13;5104735;28;20031;-78
2021/03/16 07:01:09;;;;;;;22.77;2.33;;;;;;;5.75;87.94;102483.88;5102283;28;20039;-81
2021/03/16 07:03:38;;;;;;;20.50;2.50;;;;;;;5.80;87.63;102483.41;5102265;28;20489;-80
2021/03/16 07:06:18;;;;;;;20.30;3.60;;;;;;;5.78;87.78;102484.09;5104666;28;20063;-80
2021/03/16 07:08:45;;;;;;;24.77;4.47;;;;;;;5.73;87.91;102488.00;5105499;28;20031;-80
2021/03/16 07:11:16;;;;;;;20.63;2.67;;;;;;;5.74;88.14;102488.09;5101156;28;20027;-80
2021/03/16 07:13:42;;;;;;;24.83;2.80;;;;;;;5.84;87.74;102476.84;5104701;28;20060;-78
2021/03/16 07:16:09;;;;;;;24.13;3.40;;;;;;;5.83;87.77;102486.16;5104742;28;20028;-81
2021/03/16 07:18:39;;;;;;;25.97;4.50;;;;;;;5.87;87.74;102489.84;5101200;28;20119;-80
2021/03/16 07:21:26;;;;;;;22.50;3.00;;;;;;;5.95;87.52;102493.84;5101713;28;20034;-81
2021/03/16 07:24:04;;;;;;;17.50;2.38;;;;;;;5.99;86.87;102493.25;5103899;28;20122;-79
2021/03/16 07:26:31;;;;;;;22.37;2.77;;;;;;;6.03;87.04;102497.78;5103108;28;20023;-78
2021/03/16 07:28:56;;;;;;;;;;;;;;;6.08;86.66;102498.97;5107109;28;20070;-75
2021/03/16 07:31:25;;;;;;;22.33;3.07;;;;;;;6.08;86.47;102509.19;5106368;28;19915;-79
2021/03/16 07:33:52;;;;;;;28.83;2.60;;;;;;;6.14;86.16;102509.59;5102626;28;20024;-77
2021/03/16 07:36:17;;;;;;;19.03;3.03;;;;;;;6.11;86.73;102505.97;5102112;28;20023;-77
2021/03/16 07:38:43;;;;;;;24.40;2.38;;;;;;;6.15;86.66;102511.38;5103828;28;20038;-78
2021/03/16 07:41:09;;;;;;;19.70;2.85;;;;;;;6.19;86.40;102509.94;5102232;28;20027;-77
2021/03/16 07:43:37;;;;;;;28.45;3.00;;;;;;;6.23;86.63;102514.47;5101206;28;20039;-77
2021/03/16 07:46:17;;;;;;;19.17;2.87;;;;;;;6.29;85.63;102516.53;5103803;28;20037;-77
2021/03/16 07:48:47;;;;;;;14.90;2.57;;;;;;;6.27;86.06;102516.44;5101701;28;20035;-78
2021/03/16 07:51:18;;;;;;;22.77;3.00;;;;;;;6.31;85.96;102507.31;5099589;28;20019;-77
2021/03/16 07:54:03;;;;;;;26.07;2.97;;;;;;;6.33;85.73;102511.75;5102870;28;20032;-77
2021/03/16 07:56:32;;;;;;;19.50;2.50;;;;;;;6.37;85.26;102520.50;5103398;28;20446;-78
2021/03/16 07:58:58;;;;;;;23.20;3.43;;;;;;;6.35;85.22;102514.41;5103306;28;20066;-77
2021/03/16 08:01:23;;;;;;;;;;;;;;;6.30;84.68;102518.31;5102688;28;20164;-77
2021/03/16 08:03:50;;;;;;;24.93;2.60;;;;;;;6.35;85.24;102522.94;5099574;28;19933;-79
2021/03/16 08:06:26;;;;;;;17.87;2.20;;;;;;;6.34;85.14;102527.94;5097061;28;20043;-77
2021/03/16 08:08:52;;;;;;;18.13;3.10;;;;;;;6.36;85.92;102532.38;5098005;28;20496;-78
2021/03/16 08:11:18;;;;;;;23.42;2.85;;;;;;;6.35;86.39;102524.59;5098067;28;20024;-77
2021/03/16 08:14:00;;;;;;;22.15;3.33;;;;;;;6.33;86.84;102524.50;5098132;28;20028;-78
2021/03/16 08:16:34;;;;;;;19.00;2.30;;;;;;;6.37;87.08;102523.94;5101388;28;20059;-77
2021/03/16 08:19:09;;;;;;;22.80;2.67;;;;;;;6.44;87.00;102525.22;5100331;28;20618;-78
2021/03/16 08:21:36;;;;;;;22.27;2.47;;;;;;;6.44;86.38;102526.09;5096210;28;20034;-80
2021/03/16 08:24:03;;;;;;;19.93;2.53;;;;;;;6.51;86.60;102529.97;5098200;28;20015;-78
2021/03/16 08:26:28;;;;;;;13.63;2.23;;;;;;;6.59;86.49;102530.47;5100736;28;20031;-78
2021/03/16 08:28:54;;;;;;;23.00;2.78;;;;;;;6.65;85.70;102526.66;5103389;28;20054;-77
2021/03/16 08:31:19;;;;;;;15.60;2.60;;;;;;;6.67;85.25;102530.19;5101190;28;21348;-77
2021/03/16 08:33:46;;;;;;;15.55;1.73;;;;;;;6.35;83.29;102537.38;5096426;28;20354;-77
2021/03/16 08:36:11;;;;;;;10.20;1.10;;;;;;;6.08;82.21;102539.81;5104828;28;20115;-78
2021/03/16 08:38:37;;;;;;;4.85;0.95;;;;;;;5.91;82.87;102551.41;5101449;28;20110;-76
2021/03/16 08:41:13;;;;;;;10.00;1.13;;;;;;;5.84;83.00;102553.38;5098608;28;20552;-77
2021/03/16 08:43:41;;;;;;;5.47;0.85;;;;;;;5.86;83.53;102556.94;5101551;28;20344;-77
2021/03/16 08:46:10;;;;;;;13.93;1.30;;;;;;;5.87;83.61;102559.59;5100184;28;20031;-76
2021/03/16 08:48:35;;;;;;;7.87;1.10;;;;;;;5.88;83.82;102563.91;5097046;28;20402;-76
2021/03/16 08:51:00;;;;;;;9.57;1.08;;;;;;;5.95;82.87;102561.81;5096480;28;20023;-77
2021/03/16 08:53:26;;;;;;;6.28;1.55;;;;;;;5.97;83.49;102556.03;5099153;28;20035;-77
2021/03/16 08:55:53;;;;;;;9.13;1.60;;;;;;;6.05;82.34;102566.78;5098993;28;20019;-77
2021/03/16 08:58:22;;;;;;;6.30;1.10;;;;;;;6.07;83.81;102568.66;5100994;28;20440;-77
2021/03/16 09:00:47;;;;;;;8.90;1.20;;;;;;;6.10;81.81;102566.31;5099975;28;20028;-77
2021/03/16 09:03:13;;;;;;;7.43;1.42;;;;;;;6.29;81.85;102560.81;5098885;28;20482;-79
2021/03/16 09:05:40;;;;;;;5.95;1.17;;;;;;;6.37;81.20;102561.34;5097858;28;20028;-77
2021/03/16 09:08:05;;;;;;;;;;;;;;;6.55;82.23;102549.81;5101784;28;20031;-78
2021/03/16 09:10:32;;;;;;;8.77;1.30;;;;;;;6.75;81.32;102558.78;5102648;28;19912;-77
2021/03/16 09:12:58;;;;;;;12.40;1.10;;;;;;;6.86;80.88;102556.19;5104076;28;20019;-77
2021/03/16 09:15:29;;;;;;;11.75;1.33;;;;;;;6.99;81.14;102555.31;5100172;28;20024;-77
2021/03/16 09:18:05;;;;;;;8.77;1.27;;;;;;;7.03;79.75;102558.94;5097405;28;20027;-77
2021/03/16 09:20:30;;;;;;;3.80;0.85;;;;;;;6.99;79.38;102549.31;5099640;28;20027;-77
2021/03/16 09:22:57;;;;;;;7.20;1.20;;;;;;;6.90;79.86;102553.84;5100197;28;20050;-77
2021/03/16 09:25:29;;;;;;;6.77;1.30;;;;;;;7.00;79.22;102562.19;5099978;28;20052;-79
2021/03/16 09:28:00;;;;;;;9.53;1.43;;;;;;;6.99;80.29;102560.41;5095857;28;20024;-77
2021/03/16 09:30:32;;;;;;;8.63;1.60;;;;;;;6.99;78.53;102549.31;5098341;28;20085;-77
2021/03/16 09:32:58;;;;;;;8.77;1.50;;;;;;;6.91;78.83;102553.94;5101775;28;20027;-76
2021/03/16 09:35:24;;;;;;;5.07;0.68;;;;;;;6.80;78.40;102550.66;5098550;28;20539;-77
2021/03/16 09:37:52;;;;;;;5.60;1.10;;;;;;;6.84;78.47;102545.00;5097496;28;20504;-77
2021/03/16 09:40:28;;;;;;;11.20;1.00;;;;;;;6.83;77.73;102539.78;5100086;28;20024;-77
2021/03/16 09:42:54;;;;;;;5.05;1.15;;;;;;;6.73;77.42;102540.81;5102526;28;20035;-78
2021/03/16 09:45:26;;;;;;;8.82;1.58;;;;;;;6.68;78.88;102547.28;5096360;28;20030;-78
2021/03/16 09:47:52;;;;;;;6.67;1.10;;;;;;;6.58;77.96;102547.47;5101641;28;20126;-76
2021/03/16 09:50:34;;;;;;;6.72;1.38;;;;;;;6.58;79.56;102544.91;5099529;28;20115;-77
2021/03/16 09:53:02;;;;;;;3.47;0.70;;;;;;;6.45;78.27;102549.97;5103377;28;20019;-77
2021/03/16 09:55:28;;;;;;;4.87;0.90;;;;;;;6.45;79.22;102553.41;5097950;28;20511;-76
2021/03/16 09:57:54;;;;;;;8.60;1.05;;;;;;;6.46;80.45;102554.28;5095690;28;20051;-75
2021/03/16 10:00:21;;;;;;;8.38;1.13;;;;;;;6.53;79.55;102551.38;5088626;28;20032;-76
2021/03/16 10:02:47;;;;;;;8.87;0.90;;;;;;;6.70;80.17;102555.94;5092428;28;20030;-75
2021/03/16 10:05:14;;;;;;;4.97;0.75;;;;;;;6.73;78.93;102542.50;5090629;28;20020;-77
2021/03/16 10:07:40;;;;;;;8.03;1.03;;;;;;;6.83;78.91;102552.56;5091690;28;20020;-78
2021/03/16 10:10:09;;;;;;;4.80;0.70;;;;;;;6.90;80.12;102551.28;5096098;28;20028;-77
2021/03/16 10:12:35;;;;;;;4.33;1.60;;;;;;;6.93;79.34;102548.91;5093070;28;20097;-77
2021/03/16 10:15:01;;;;;;;6.93;0.88;;;;;;;7.01;80.99;102555.41;5102809;28;20020;-78
2021/03/16 10:17:29;;;;;;;8.35;0.90;;;;;;;7.15;80.86;102557.19;5104940;28;20028;-77
2021/03/16 10:19:59;;;;;;;2.73;0.50;;;;;;;7.09;80.14;102556.78;5100238;28;20058;-77
2021/03/16 10:22:32;;;;;;;5.17;1.00;;;;;;;7.14;80.48;102560.53;5100894;28;20028;-77
2021/03/16 10:24:59;;;;;;;2.23;0.70;;;;;;;7.22;81.01;102559.38;5102945;28;20027;-77
2021/03/16 10:27:27;;;;;;;3.40;1.00;;;;;;;7.18;78.76;102549.75;5104053;28;20039;-77
2021/03/16 10:29:53;;;;;;;1.47;0.50;;;;;;;7.10;79.16;102548.34;5100425;28;20035;-79
2021/03/16 10:32:18;;;;;;;3.90;0.70;;;;;;;7.04;78.76;102547.94;5101917;28;20090;-77
2021/03/16 10:34:44;;;;;;;2.43;0.43;;;;;;;7.01;78.01;102552.84;5097335;28;20024;-78
2021/03/16 10:37:21;;;;;;;5.15;0.73;;;;;;;7.24;80.13;102545.00;5098551;28;20616;-79
2021/03/16 10:39:46;;;;;;;1.40;0.40;;;;;;;7.48;79.99;102553.38;5096907;28;20427;-78
2021/03/16 10:42:12;;;;;;;0.95;0.40;;;;;;;7.66;79.04;102551.06;5104927;28;20110;-78
2021/03/16 10:44:38;;;;;;;3.47;0.60;;;;;;;7.65;78.97;102555.31;5105282;28;20098;-80
2021/03/16 10:47:03;;;;;;;3.67;0.85;;;;;;;7.79;79.95;102556.16;5103674;28;20107;-77
2021/03/16 10:49:29;;;;;;;4.18;1.25;;;;;;;7.77;78.21;102555.19;5106549;28;20538;-77
2021/03/16 10:51:54;;;;;;;4.15;0.68;;;;;;;7.79;78.76;102551.91;5099454;28;20118;-80
2021/03/16 10:54:19;;;;;;;3.17;0.50;;;;;;;7.86;79.67;102548.09;5103053;28;20517;-78
2021/03/16 10:56:45;;;;;;;0.85;0.40;;;;;;;7.77;77.19;102552.63;5103288;28;20127;-78
2021/03/16 10:59:10;;;;;;;1.50;0.50;;;;;;;7.89;78.94;102553.41;5105741;28;20060;-78
2021/03/16 11:01:35;;;;;;;5.30;0.87;;;;;;;8.03;79.26;102552.56;5104838;28;20269;-77
2021/03/16 11:04:00;;;;;;;5.25;0.90;;;;;;;8.00;78.68;102554.94;5101886;28;20016;-79
2021/03/16 11:06:26;;;;;;;5.97;0.87;;;;;;;8.05;79.24;102553.53;5107616;28;20499;-79
2021/03/16 11:08:51;;;;;;;3.43;1.10;;;;;;;8.08;78.75;102545.16;5104979;28;20282;-79
2021/03/16 11:11:16;;;;;;;2.47;0.57;;;;;;;7.77;78.13;102544.94;5102769;28;20281;-77
2021/03/16 11:13:41;;;;;;;2.70;0.60;;;;;;;7.53;77.92;102544.31;5101477;28;20030;-79
2021/03/16 11:16:07;;;;;;;0.93;0.40;;;;;;;7.43;79.22;102542.81;5102869;28;20027;-77
2021/03/16 11:18:32;;;;;;;3.63;1.00;;;;;;;7.27;79.11;102537.53;5104005;28;20360;-78
2021/03/16 11:20:57;;;;;;;4.20;0.70;;;;;;;7.49;79.25;102539.81;5106379;28;20289;-77
2021/03/16 11:23:23;;;;;;;4.03;0.77;;;;;;;7.65;80.38;102544.19;5102459;28;20083;-77
2021/03/16 11:25:48;;;;;;;3.78;0.90;;;;;;;7.86;80.29;102536.97;5104396;28;20277;-78
2021/03/16 11:28:13;;;;;;;1.83;0.73;;;;;;;8.03;79.02;102528.66;5100666;28;20511;-77
2021/03/16 11:30:39;;;;;;;5.32;0.63;;;;;;;8.10;79.24;102531.66;5103930;28;20054;-78